createdAt,value
2017-02-09T08:28:57.883Z,43.06
2017-02-09T08:29:15.867Z,42.76
2017-02-09T08:30:13.166Z,43.34
2017-02-09T08:31:13.316Z,43.30
2017-02-09T08:32:14.204Z,44.07
2017-02-09T08:33:14.354Z,43.52
2017-02-09T08:34:13.589Z,43.72
2017-02-09T08:35:13.153Z,43.80
2017-02-09T08:36:13.386Z,43.86
2017-02-09T08:37:13.692Z,44.33
2017-02-09T08:38:13.701Z,44.34
2017-02-09T08:39:13.909Z,44.74
2017-02-09T08:40:14.249Z,45.19
2017-02-09T08:41:15.393Z,45.45
2017-02-09T08:42:14.600Z,45.63
2017-02-09T08:43:14.237Z,45.60
2017-02-09T08:44:13.619Z,45.44
2017-02-09T08:45:14.096Z,45.97
2017-02-09T08:46:13.754Z,46.29
2017-02-09T08:47:14.195Z,46.61
2017-02-09T08:48:13.727Z,46.28
2017-02-09T08:49:15.022Z,46.83
2017-02-09T08:50:13.578Z,47.05
2017-02-09T08:51:14.146Z,47.38
2017-02-09T08:52:15.360Z,47.24
2017-02-09T08:53:13.712Z,47.64
2017-02-09T08:54:15.158Z,48.02
2017-02-09T08:55:13.396Z,47.94
2017-02-09T08:56:13.867Z,48.14
2017-02-09T08:57:13.557Z,48.46
2017-02-09T08:58:14.688Z,48.53
2017-02-09T08:59:10.684Z,48.88
2017-02-09T09:00:13.916Z,48.78
2017-02-09T09:01:13.655Z,48.85
2017-02-09T09:02:14.416Z,49.19
2017-02-09T09:03:15.608Z,49.05
2017-02-09T09:04:15.607Z,49.26
2017-02-09T09:05:15.481Z,49.48
2017-02-09T09:06:13.996Z,49.62
2017-02-09T09:07:13.688Z,49.54
2017-02-09T09:08:13.706Z,49.66
2017-02-09T09:09:14.777Z,50.12
2017-02-09T09:10:15.726Z,50.09
2017-02-09T09:11:14.415Z,50.09
2017-02-09T09:12:14.365Z,50.38
2017-02-09T09:13:14.475Z,50.31
2017-02-09T09:14:15.081Z,50.37
2017-02-09T09:15:13.416Z,50.59
2017-02-09T09:16:13.365Z,50.68
2017-02-09T09:17:14.732Z,50.73
2017-02-09T09:18:14.638Z,50.86
2017-02-09T09:19:15.311Z,51.03
2017-02-09T09:20:16.258Z,50.89
2017-02-09T09:21:14.425Z,51.13
2017-02-09T09:22:15.120Z,51.23
2017-02-09T09:23:14.149Z,51.23
2017-02-09T09:24:14.366Z,51.35
2017-02-09T09:25:10.336Z,51.25
2017-02-09T09:26:14.140Z,51.51
2017-02-09T09:27:13.311Z,51.51
2017-02-09T09:28:13.326Z,51.62
2017-02-09T09:29:13.788Z,51.62
2017-02-09T09:30:11.606Z,51.64
2017-02-09T09:31:14.544Z,51.79
2017-02-09T09:32:13.903Z,51.83
2017-02-09T09:33:12.887Z,51.77
2017-02-09T09:34:14.831Z,51.87
2017-02-09T09:35:14.710Z,52.09
2017-02-09T09:36:13.520Z,52.10
2017-02-09T09:37:13.214Z,52.11
2017-02-09T09:38:12.374Z,52.20
2017-02-09T09:39:14.070Z,52.23
2017-02-09T09:40:14.133Z,52.25
2017-02-09T09:41:14.429Z,52.36
2017-02-09T09:42:14.177Z,52.40
2017-02-09T09:43:14.487Z,52.47
2017-02-09T09:44:12.416Z,52.45
2017-02-09T09:45:13.252Z,52.51
2017-02-09T09:46:12.239Z,52.57
2017-02-09T09:47:11.006Z,52.64
2017-02-09T09:48:13.399Z,52.68
2017-02-09T09:49:13.408Z,52.74
2017-02-09T09:50:13.197Z,52.75
2017-02-09T09:51:14.083Z,52.65
2017-02-09T09:52:14.093Z,52.05
2017-02-09T09:53:13.618Z,52.76
2017-02-09T09:54:13.168Z,52.87
2017-02-09T09:55:14.501Z,53.00
2017-02-09T09:56:14.293Z,52.98
2017-02-09T09:57:11.192Z,52.96
2017-02-09T09:58:11.190Z,52.26
2017-02-09T09:59:13.027Z,52.11
2017-02-09T10:00:12.602Z,52.02
2017-02-09T10:01:15.053Z,52.01
2017-02-09T10:02:13.385Z,52.08
2017-02-09T10:03:14.085Z,52.35
2017-02-09T10:04:12.858Z,52.93
2017-02-09T10:05:12.159Z,53.15
2017-02-09T10:06:14.792Z,53.22
2017-02-09T10:07:13.812Z,53.34
2017-02-09T10:08:13.725Z,53.39
2017-02-09T10:09:12.759Z,53.44
2017-02-09T10:10:11.564Z,53.51
2017-02-09T10:11:13.170Z,53.53
2017-02-09T10:12:13.832Z,53.52
2017-02-09T10:13:14.178Z,53.61
2017-02-09T10:14:12.220Z,53.65
2017-02-09T10:15:13.391Z,53.73
2017-02-09T10:16:13.023Z,53.72
2017-02-09T10:17:14.073Z,53.74
2017-02-09T10:18:13.742Z,53.77
2017-02-09T10:19:14.768Z,53.81
2017-02-09T10:20:14.525Z,53.85
2017-02-09T10:21:13.021Z,53.87
2017-02-09T10:22:12.982Z,53.90
2017-02-09T10:23:13.941Z,53.91
2017-02-09T10:24:13.559Z,53.95
2017-02-09T10:25:13.680Z,53.99
2017-02-09T10:26:13.844Z,53.96
2017-02-09T10:27:14.779Z,54.05
2017-02-09T10:28:13.117Z,54.07
2017-02-09T10:29:13.607Z,54.08
2017-02-09T10:30:12.577Z,54.11
2017-02-09T10:31:13.435Z,54.11
2017-02-09T10:32:13.262Z,54.16
2017-02-09T10:33:14.790Z,54.17
2017-02-09T10:34:14.997Z,54.23
2017-02-09T10:35:12.399Z,54.22
2017-02-09T10:36:15.352Z,54.30
2017-02-09T10:37:14.893Z,54.31
2017-02-09T10:38:14.936Z,54.34
2017-02-09T10:39:11.747Z,54.35
2017-02-09T10:40:12.808Z,54.35
2017-02-09T10:41:13.590Z,54.36
2017-02-09T10:42:12.247Z,54.41
2017-02-09T10:43:13.710Z,54.42
2017-02-09T10:44:13.590Z,54.47
2017-02-09T10:45:14.320Z,54.48
2017-02-09T10:46:12.143Z,54.52
2017-02-09T10:47:14.260Z,54.52
2017-02-09T10:48:12.980Z,54.54
2017-02-09T10:49:13.121Z,54.55
2017-02-09T10:50:12.602Z,54.59
2017-02-09T10:51:14.299Z,54.59
2017-02-09T10:52:12.946Z,54.63
2017-02-09T10:53:13.504Z,54.59
2017-02-09T10:54:13.516Z,54.65
2017-02-09T10:55:13.357Z,54.66
2017-02-09T10:56:13.277Z,54.68
2017-02-09T10:57:12.936Z,54.69
2017-02-09T10:58:14.168Z,54.71
2017-02-09T10:59:12.974Z,54.70
2017-02-09T11:00:12.771Z,54.76
2017-02-09T11:01:13.354Z,54.79
2017-02-09T11:02:12.748Z,54.77
2017-02-09T11:03:16.583Z,54.79
2017-02-09T11:04:14.209Z,54.83
2017-02-09T11:05:13.323Z,54.84
2017-02-09T11:06:15.020Z,54.82
2017-02-09T11:07:13.562Z,54.86
2017-02-09T11:08:13.570Z,54.90
2017-02-09T11:09:14.790Z,54.95
2017-02-09T11:10:14.723Z,54.92
2017-02-09T11:11:11.359Z,54.94
2017-02-09T11:12:13.584Z,54.95
2017-02-09T11:13:14.175Z,54.93
2017-02-09T11:14:13.018Z,54.92
2017-02-09T11:15:12.955Z,54.95
2017-02-09T11:16:12.703Z,54.99
2017-02-09T11:17:15.267Z,54.97
2017-02-09T11:18:13.951Z,55.02
2017-02-09T11:19:13.414Z,55.02
2017-02-09T11:20:15.051Z,55.05
2017-02-09T11:21:14.896Z,55.07
2017-02-09T11:22:14.571Z,55.04
2017-02-09T11:23:14.505Z,55.07
2017-02-09T11:24:14.194Z,55.07
2017-02-09T11:25:13.010Z,55.12
2017-02-09T11:26:13.622Z,55.11
2017-02-09T11:27:15.536Z,55.12
2017-02-09T11:28:13.622Z,55.13
2017-02-09T11:29:13.370Z,55.15
2017-02-09T11:30:12.991Z,55.14
2017-02-09T11:31:13.573Z,55.17
2017-02-09T11:32:13.067Z,55.17
2017-02-09T11:33:12.409Z,55.19
2017-02-09T11:34:12.797Z,55.21
2017-02-09T11:35:14.254Z,55.22
2017-02-09T11:36:13.689Z,55.25
2017-02-09T11:37:15.036Z,55.26
2017-02-09T11:38:12.101Z,55.29
2017-02-09T11:39:12.974Z,55.29
2017-02-09T11:40:12.928Z,55.29
2017-02-09T11:41:12.640Z,55.29
2017-02-09T11:42:10.748Z,55.33
2017-02-09T11:43:13.596Z,54.70
2017-02-09T11:44:13.254Z,55.14
2017-02-09T11:45:12.791Z,55.28
2017-02-09T11:46:12.790Z,55.33
2017-02-09T11:47:13.532Z,55.35
2017-02-09T11:48:13.772Z,55.37
2017-02-09T11:49:13.601Z,55.42
2017-02-09T11:50:13.607Z,55.45
2017-02-09T11:51:13.769Z,55.47
2017-02-09T11:52:12.732Z,55.45
2017-02-09T11:53:14.492Z,55.52
2017-02-09T11:54:13.335Z,55.49
2017-02-09T11:55:13.010Z,55.52
2017-02-09T11:56:12.110Z,55.56
2017-02-09T11:57:09.707Z,55.57
2017-02-09T11:58:14.406Z,55.57
2017-02-09T11:59:12.283Z,55.58
2017-02-09T12:00:13.310Z,55.59
2017-02-09T12:01:13.403Z,55.61
2017-02-09T12:02:12.833Z,55.63
2017-02-09T12:03:13.504Z,55.63
2017-02-09T12:04:14.663Z,55.66
2017-02-09T12:05:13.596Z,55.70
2017-02-09T12:06:12.613Z,55.68
2017-02-09T12:07:13.412Z,55.72
2017-02-09T12:08:13.245Z,55.72
2017-02-09T12:09:12.148Z,55.72
2017-02-09T12:10:12.093Z,55.73
2017-02-09T12:11:13.322Z,55.77
2017-02-09T12:12:13.097Z,55.76
2017-02-09T12:13:09.693Z,55.76
2017-02-09T12:14:13.028Z,55.76
2017-02-09T12:15:12.466Z,55.75
2017-02-09T12:16:12.823Z,55.75
2017-02-09T12:17:13.181Z,55.80
2017-02-09T12:18:12.755Z,55.77
2017-02-09T12:19:14.179Z,55.76
2017-02-09T12:20:12.185Z,55.80
2017-02-09T12:21:12.052Z,55.78
2017-02-09T12:22:12.785Z,55.81
2017-02-09T12:23:12.909Z,55.82
2017-02-09T12:24:13.650Z,55.83
2017-02-09T12:25:12.635Z,55.82
2017-02-09T12:26:13.155Z,55.84
2017-02-09T12:27:13.037Z,55.82
2017-02-09T12:28:12.359Z,55.84
2017-02-09T12:29:13.928Z,55.88
2017-02-09T12:30:13.636Z,55.87
2017-02-09T12:31:12.669Z,55.88
2017-02-09T12:32:11.100Z,55.88
2017-02-09T12:33:13.725Z,55.87
2017-02-09T12:34:11.429Z,55.89
2017-02-09T12:35:13.028Z,55.88
2017-02-09T12:36:11.927Z,55.87
2017-02-09T12:37:12.237Z,55.90
2017-02-09T12:38:12.226Z,55.93
2017-02-09T12:39:13.195Z,55.95
2017-02-09T12:40:13.213Z,55.95
2017-02-09T12:41:12.214Z,55.95
2017-02-09T12:42:13.104Z,55.97
2017-02-09T12:43:12.664Z,55.94
2017-02-09T12:44:13.327Z,55.99
2017-02-09T12:45:14.100Z,55.99
2017-02-09T12:46:13.729Z,55.99
2017-02-09T12:47:11.375Z,56.00
2017-02-09T12:48:14.174Z,55.99
2017-02-09T12:49:14.738Z,56.02
2017-02-09T12:50:11.016Z,56.04
2017-02-09T12:51:12.723Z,56.04
2017-02-09T12:52:12.779Z,56.06
2017-02-09T12:53:12.768Z,56.07
2017-02-09T12:54:14.056Z,56.07
2017-02-09T12:55:13.617Z,56.08
2017-02-09T12:56:13.011Z,56.12
2017-02-09T12:57:12.588Z,56.12
2017-02-09T12:58:12.629Z,56.10
2017-02-09T12:59:12.690Z,56.11
2017-02-09T13:00:14.489Z,56.12
2017-02-09T13:01:14.069Z,56.11
2017-02-09T13:02:12.607Z,56.14
2017-02-09T13:03:12.647Z,56.10
2017-02-09T13:04:15.661Z,56.10
2017-02-09T13:05:13.402Z,56.12
2017-02-09T13:06:12.692Z,56.11
2017-02-09T13:07:13.574Z,56.13
2017-02-09T13:08:13.264Z,56.13
2017-02-09T13:09:12.356Z,56.14
2017-02-09T13:10:12.417Z,56.16
2017-02-09T13:11:13.330Z,56.19
2017-02-09T13:12:12.362Z,56.19
2017-02-09T13:13:12.323Z,56.21
2017-02-09T13:14:12.347Z,56.21
2017-02-09T13:15:12.616Z,56.23
2017-02-09T13:16:13.867Z,56.24
2017-02-09T13:17:13.463Z,56.24
2017-02-09T13:18:11.237Z,56.23
2017-02-09T13:19:12.620Z,56.23
2017-02-09T13:20:13.129Z,56.24
2017-02-09T13:21:12.252Z,56.25
2017-02-09T13:22:13.301Z,56.26
2017-02-09T13:23:12.552Z,56.24
2017-02-09T13:24:12.778Z,56.25
2017-02-09T13:25:14.057Z,56.26
2017-02-09T13:26:12.541Z,56.30
2017-02-09T13:27:14.991Z,56.32
2017-02-09T13:28:12.055Z,56.30
2017-02-09T13:29:12.379Z,56.29
2017-02-09T13:30:13.940Z,56.34
2017-02-09T13:31:12.430Z,56.31
2017-02-09T13:32:12.843Z,56.35
2017-02-09T13:33:14.989Z,56.36
2017-02-09T13:34:13.603Z,56.34
2017-02-09T13:35:10.553Z,56.36
2017-02-09T13:36:13.416Z,56.35
2017-02-09T13:37:13.179Z,56.36
2017-02-09T13:38:12.219Z,56.37
2017-02-09T13:39:12.047Z,56.36
2017-02-09T13:40:12.875Z,56.35
2017-02-09T13:41:12.726Z,56.35
2017-02-09T13:42:14.108Z,56.35
2017-02-09T13:43:13.097Z,56.38
2017-02-09T13:44:12.050Z,56.38
2017-02-09T13:45:12.515Z,56.41
2017-02-09T13:46:13.046Z,56.42
2017-02-09T13:47:12.661Z,56.40
2017-02-09T13:48:13.143Z,56.42
2017-02-09T13:49:12.106Z,56.40
2017-02-09T13:50:11.989Z,56.39
2017-02-09T13:51:12.924Z,56.41
2017-02-09T13:52:11.711Z,56.41
2017-02-09T13:53:13.342Z,56.45
2017-02-09T13:54:12.397Z,56.43
2017-02-09T13:55:13.345Z,56.43
2017-02-09T13:56:12.278Z,56.44
2017-02-09T13:57:13.119Z,56.49
2017-02-09T13:58:12.813Z,56.47
2017-02-09T13:59:13.201Z,56.47
2017-02-09T14:00:12.861Z,56.46
2017-02-09T14:01:12.560Z,56.49
2017-02-09T14:02:12.945Z,56.51
2017-02-09T14:03:12.611Z,56.48
2017-02-09T14:04:13.619Z,56.51
2017-02-09T14:05:12.986Z,56.50
2017-02-09T14:06:12.027Z,56.48
2017-02-09T14:07:12.996Z,56.48
2017-02-09T14:08:12.553Z,56.52
2017-02-09T14:09:13.039Z,56.52
2017-02-09T14:10:11.825Z,56.54
2017-02-09T14:11:15.137Z,56.51
2017-02-09T14:12:12.752Z,56.55
2017-02-09T14:13:13.126Z,56.56
2017-02-09T14:14:12.715Z,56.56
2017-02-09T14:15:12.746Z,56.54
2017-02-09T14:16:14.519Z,56.54
2017-02-09T14:17:15.739Z,56.56
2017-02-09T14:18:12.860Z,56.56
2017-02-09T14:19:12.858Z,56.61
2017-02-09T14:20:12.890Z,56.55
2017-02-09T14:21:14.787Z,56.56
2017-02-09T14:22:13.151Z,56.56
2017-02-09T14:23:12.017Z,56.59
2017-02-09T14:24:12.438Z,56.57
2017-02-09T14:25:12.260Z,56.57
2017-02-09T14:26:12.777Z,56.57
2017-02-09T14:27:13.730Z,56.59
2017-02-09T14:28:13.556Z,56.58
2017-02-09T14:29:13.112Z,56.60
2017-02-09T14:30:13.736Z,56.58
2017-02-09T14:31:14.279Z,56.42
2017-02-09T14:32:13.467Z,56.30
2017-02-09T14:33:10.765Z,56.31
2017-02-09T14:34:12.234Z,56.35
2017-02-09T14:35:12.231Z,56.42
2017-02-09T14:36:10.372Z,56.46
2017-02-09T14:37:11.392Z,56.45
2017-02-09T14:38:10.621Z,56.43
2017-02-09T14:39:12.397Z,56.43
2017-02-09T14:40:14.174Z,56.40
2017-02-09T14:41:12.888Z,56.41
2017-02-09T14:42:14.462Z,56.42
2017-02-09T14:43:12.261Z,56.38
2017-02-09T14:44:12.917Z,56.37
2017-02-09T14:45:12.604Z,56.40
2017-02-09T14:46:11.284Z,56.30
2017-02-09T14:47:13.900Z,56.40
2017-02-09T14:48:13.335Z,56.44
2017-02-09T14:49:12.991Z,56.43
2017-02-09T14:50:12.780Z,56.44
2017-02-09T14:51:14.336Z,56.45
2017-02-09T14:52:13.120Z,56.46
2017-02-09T14:53:12.598Z,56.48
2017-02-09T14:54:14.071Z,56.51
2017-02-09T14:55:12.698Z,56.50
2017-02-09T14:56:13.522Z,56.49
2017-02-09T14:57:12.574Z,56.48
2017-02-09T14:58:11.653Z,56.41
2017-02-09T14:59:13.727Z,55.69
2017-02-09T15:00:13.630Z,56.49
2017-02-09T15:01:12.607Z,56.65
2017-02-09T15:02:13.179Z,56.78
2017-02-09T15:03:12.139Z,56.86
2017-02-09T15:04:12.272Z,56.88
2017-02-09T15:05:14.308Z,56.98
2017-02-09T15:06:10.451Z,57.02
2017-02-09T15:07:12.961Z,56.13
2017-02-09T15:08:13.423Z,55.99
2017-02-09T15:09:12.933Z,55.92
2017-02-09T15:10:11.002Z,55.89
2017-02-09T15:11:11.895Z,56.10
2017-02-09T15:12:13.465Z,56.81
2017-02-09T15:13:13.968Z,57.00
2017-02-09T15:14:11.956Z,57.04
2017-02-09T15:15:12.507Z,57.09
2017-02-09T15:16:13.265Z,57.15
2017-02-09T15:17:12.141Z,57.07
2017-02-09T15:18:11.111Z,57.20
2017-02-09T15:19:12.617Z,57.20
2017-02-09T15:20:13.353Z,57.21
2017-02-09T15:21:13.228Z,57.24
2017-02-09T15:22:12.909Z,57.26
2017-02-09T15:23:12.997Z,57.26
2017-02-09T15:24:12.079Z,57.28
2017-02-09T15:25:12.825Z,57.31
2017-02-09T15:26:12.738Z,57.31
2017-02-09T15:27:12.589Z,57.33
2017-02-09T15:28:12.688Z,57.35
2017-02-09T15:29:14.171Z,57.34
2017-02-09T15:30:13.870Z,57.33
2017-02-09T15:31:13.232Z,57.36
2017-02-09T15:32:12.739Z,57.37
2017-02-09T15:33:12.618Z,57.35
2017-02-09T15:34:13.319Z,57.37
2017-02-09T15:35:19.835Z,57.42
2017-02-09T15:36:13.580Z,57.42
2017-02-09T15:37:12.417Z,57.42
2017-02-09T15:38:12.757Z,57.42
2017-02-09T15:39:13.097Z,57.39
2017-02-09T15:40:12.759Z,57.44
2017-02-09T15:41:10.938Z,57.45
2017-02-09T15:42:13.427Z,56.53
2017-02-09T15:43:13.516Z,56.55
2017-02-09T15:44:12.533Z,57.19
2017-02-09T15:45:12.541Z,57.32
2017-02-09T15:46:13.298Z,57.39
2017-02-09T15:47:12.942Z,57.41
2017-02-09T15:48:12.301Z,57.45
2017-02-09T15:49:13.471Z,57.43
2017-02-09T15:50:12.445Z,57.46
2017-02-09T15:51:13.035Z,57.46
2017-02-09T15:52:12.964Z,57.48
2017-02-09T15:53:13.681Z,57.48
2017-02-09T15:54:13.387Z,57.48
2017-02-09T15:55:13.092Z,57.48
2017-02-09T15:56:11.955Z,57.51
2017-02-09T15:57:12.784Z,57.52
2017-02-09T15:58:14.053Z,57.54
2017-02-09T15:59:13.686Z,57.52
2017-02-09T16:00:12.513Z,57.51
2017-02-09T16:01:13.217Z,57.51
2017-02-09T16:02:12.169Z,57.54
2017-02-09T16:03:12.785Z,57.53
2017-02-09T16:04:12.862Z,57.53
2017-02-09T16:05:15.586Z,57.57
2017-02-09T16:06:14.334Z,57.57
2017-02-09T16:07:13.072Z,57.57
2017-02-09T16:08:12.012Z,57.57
2017-02-09T16:09:12.518Z,57.58
2017-02-09T16:10:12.853Z,57.58
2017-02-09T16:11:12.695Z,57.57
2017-02-09T16:12:13.258Z,57.58
2017-02-09T16:13:13.019Z,57.58
2017-02-09T16:14:12.823Z,57.57
2017-02-09T16:15:12.807Z,57.57
2017-02-09T16:16:14.421Z,57.57
2017-02-09T16:17:13.311Z,57.57
2017-02-09T16:18:13.020Z,57.57
2017-02-09T16:19:12.523Z,57.59
2017-02-09T16:20:12.318Z,57.58
2017-02-09T16:21:13.001Z,57.59
2017-02-09T16:22:10.868Z,57.62
2017-02-09T16:23:13.286Z,57.62
2017-02-09T16:24:12.249Z,57.62
2017-02-09T16:25:12.547Z,57.60
2017-02-09T16:26:13.473Z,57.62
2017-02-09T16:27:12.954Z,57.51
2017-02-09T16:28:14.012Z,56.70
2017-02-09T16:29:12.446Z,56.55
2017-02-09T16:30:14.756Z,56.45
2017-02-09T16:31:14.535Z,56.38
2017-02-09T16:32:12.780Z,56.33
2017-02-09T16:33:14.191Z,56.34
2017-02-09T16:34:12.828Z,56.34
2017-02-09T16:35:13.012Z,56.34
2017-02-09T16:36:12.584Z,56.33
2017-02-09T16:37:13.284Z,56.33
2017-02-09T16:38:13.932Z,56.32
2017-02-09T16:39:11.855Z,56.33
2017-02-09T16:40:13.390Z,57.22
2017-02-09T16:41:12.263Z,57.40
2017-02-09T16:42:13.982Z,57.53
2017-02-09T16:43:11.829Z,57.57
2017-02-09T16:44:11.445Z,57.56
2017-02-09T16:45:13.139Z,57.61
2017-02-09T16:46:10.337Z,57.66
2017-02-09T16:47:12.266Z,56.96
2017-02-09T16:48:12.802Z,57.50
2017-02-09T16:49:13.420Z,57.58
2017-02-09T16:50:12.325Z,57.64
2017-02-09T16:51:12.996Z,57.66
2017-02-09T16:52:11.731Z,57.65
2017-02-09T16:53:12.612Z,57.65
2017-02-09T16:54:12.472Z,57.65
2017-02-09T16:55:12.366Z,57.68
2017-02-09T16:56:13.151Z,57.68
2017-02-09T16:57:12.608Z,57.67
2017-02-09T16:58:14.468Z,57.67
2017-02-09T16:59:12.965Z,57.69
2017-02-09T17:00:12.027Z,57.70
2017-02-09T17:01:13.808Z,57.72
2017-02-09T17:02:13.694Z,57.72
2017-02-09T17:03:12.668Z,57.71
2017-02-09T17:04:12.858Z,57.72
2017-02-09T17:05:12.715Z,57.72
2017-02-09T17:06:12.720Z,57.71
2017-02-09T17:07:12.797Z,57.71
2017-02-09T17:08:11.611Z,57.68
2017-02-09T17:09:13.838Z,57.71
2017-02-09T17:10:13.337Z,57.72
2017-02-09T17:11:12.289Z,57.73
2017-02-09T17:12:12.266Z,57.73
2017-02-09T17:13:12.661Z,57.71
2017-02-09T17:14:12.494Z,57.71
2017-02-09T17:15:11.255Z,57.71
2017-02-09T17:16:12.633Z,56.81
2017-02-09T17:17:13.425Z,56.51
2017-02-09T17:18:13.179Z,56.53
2017-02-09T17:19:12.808Z,56.44
2017-02-09T17:20:15.451Z,56.73
2017-02-09T17:21:12.468Z,57.29
2017-02-09T17:22:13.291Z,57.49
2017-02-09T17:23:12.848Z,57.55
2017-02-09T17:24:13.885Z,57.60
2017-02-09T17:25:13.336Z,57.63
2017-02-09T17:26:12.995Z,57.65
2017-02-09T17:27:12.086Z,57.65
2017-02-09T17:28:13.007Z,57.67
2017-02-09T17:29:12.559Z,57.67
2017-02-09T17:30:13.033Z,57.68
2017-02-09T17:31:11.998Z,57.68
2017-02-09T17:32:11.981Z,57.67
2017-02-09T17:33:11.911Z,57.66
2017-02-09T17:34:13.153Z,57.68
2017-02-09T17:35:13.840Z,57.69
2017-02-09T17:36:11.568Z,57.65
2017-02-09T17:37:11.240Z,56.92
2017-02-09T17:38:12.350Z,56.64
2017-02-09T17:39:12.246Z,56.51
2017-02-09T17:40:12.813Z,57.33
2017-02-09T17:41:12.811Z,57.49
2017-02-09T17:42:13.399Z,57.57
2017-02-09T17:43:14.040Z,57.61
2017-02-09T17:44:12.478Z,57.63
2017-02-09T17:45:12.936Z,57.65
2017-02-09T17:46:10.848Z,57.68
2017-02-09T17:47:12.721Z,57.68
2017-02-09T17:48:11.617Z,57.69
2017-02-09T17:49:10.673Z,57.69
2017-02-09T17:50:13.315Z,56.77
2017-02-09T17:51:12.992Z,56.58
2017-02-09T17:52:12.494Z,56.49
2017-02-09T17:53:12.950Z,56.45
2017-02-09T17:54:12.053Z,56.40
2017-02-09T17:55:12.594Z,56.38
2017-02-09T17:56:12.587Z,56.54
2017-02-09T17:57:11.377Z,57.28
2017-02-09T17:58:12.421Z,56.56
2017-02-09T17:59:12.310Z,56.44
2017-02-09T18:00:12.302Z,56.38
2017-02-09T18:01:13.004Z,56.34
2017-02-09T18:02:12.791Z,56.34
2017-02-09T18:03:12.780Z,56.34
2017-02-09T18:04:12.792Z,56.33
2017-02-09T18:05:13.504Z,56.32
2017-02-09T18:06:12.481Z,56.37
2017-02-09T18:07:14.206Z,57.22
2017-02-09T18:08:12.598Z,57.42
2017-02-09T18:09:13.074Z,57.53
2017-02-09T18:10:12.787Z,57.57
2017-02-09T18:11:12.762Z,57.60
2017-02-09T18:12:12.801Z,57.61
2017-02-09T18:13:13.559Z,57.62
2017-02-09T18:14:12.444Z,57.63
2017-02-09T18:15:13.940Z,57.54
2017-02-09T18:16:11.885Z,56.75
2017-02-09T18:17:15.547Z,57.46
2017-02-09T18:18:12.701Z,57.57
2017-02-09T18:19:13.356Z,57.62
2017-02-09T18:20:13.022Z,57.64
2017-02-09T18:21:12.258Z,57.65
2017-02-09T18:22:12.326Z,57.66
2017-02-09T18:23:12.321Z,57.65
2017-02-09T18:24:12.677Z,57.67
2017-02-09T18:25:14.717Z,57.67
2017-02-09T18:26:13.303Z,57.66
2017-02-09T18:27:13.815Z,57.69
2017-02-09T18:28:12.975Z,57.11
2017-02-09T18:29:11.782Z,56.01
2017-02-09T18:30:13.376Z,57.01
2017-02-09T18:31:12.242Z,58.02
2017-02-09T18:32:12.279Z,57.68
2017-02-09T18:33:12.761Z,57.67
2017-02-09T18:34:14.478Z,57.55
2017-02-09T18:35:12.980Z,57.42
2017-02-09T18:36:12.030Z,56.52
2017-02-09T18:37:13.612Z,56.28
2017-02-09T18:38:12.777Z,56.18
2017-02-09T18:39:13.463Z,56.22
2017-02-09T18:40:14.166Z,56.72
2017-02-09T18:41:12.862Z,56.57
2017-02-09T18:42:13.462Z,57.79
2017-02-09T18:43:13.033Z,56.74
2017-02-09T18:44:12.028Z,57.44
2017-02-09T18:45:12.616Z,57.57
2017-02-09T18:46:12.580Z,57.75
2017-02-09T18:47:12.605Z,57.89
2017-02-09T18:48:13.454Z,57.97
2017-02-09T18:49:12.424Z,57.92
2017-02-09T18:50:14.185Z,58.06
2017-02-09T18:51:12.279Z,57.92
2017-02-09T18:52:12.622Z,58.01
2017-02-09T18:53:14.300Z,58.23
2017-02-09T18:54:12.312Z,58.42
2017-02-09T18:55:13.322Z,58.44
2017-02-09T18:56:12.950Z,58.56
2017-02-09T18:57:12.791Z,58.47
2017-02-09T18:58:14.099Z,58.52
2017-02-09T18:59:15.565Z,58.53
2017-02-09T19:00:13.003Z,58.36
2017-02-09T19:01:11.887Z,58.38
2017-02-09T19:02:12.749Z,58.38
2017-02-09T19:03:13.372Z,58.40
2017-02-09T19:04:14.055Z,58.41
2017-02-09T19:05:12.834Z,58.42
2017-02-09T19:06:15.553Z,58.46
2017-02-09T19:07:13.051Z,58.46
2017-02-09T19:08:12.013Z,58.44
2017-02-09T19:09:12.738Z,58.42
2017-02-09T19:10:11.481Z,58.44
2017-02-09T19:11:13.159Z,58.35
2017-02-09T19:12:13.895Z,58.51
2017-02-09T19:13:11.559Z,58.47
2017-02-09T19:14:12.595Z,57.86
2017-02-09T19:15:13.024Z,58.34
2017-02-09T19:16:12.752Z,58.40
2017-02-09T19:17:13.875Z,58.44
2017-02-09T19:18:12.777Z,58.44
2017-02-09T19:19:13.639Z,58.49
2017-02-09T19:20:12.640Z,58.52
2017-02-09T19:21:13.319Z,58.56
2017-02-09T19:22:12.977Z,58.58
2017-02-09T19:23:11.787Z,58.73
2017-02-09T19:24:14.517Z,58.81
2017-02-09T19:25:13.049Z,58.70
2017-02-09T19:26:12.174Z,58.70
2017-02-09T19:27:12.704Z,58.70
2017-02-09T19:28:12.812Z,58.66
2017-02-09T19:29:14.713Z,58.68
2017-02-09T19:30:12.740Z,58.65
2017-02-09T19:31:13.610Z,58.68
2017-02-09T19:32:14.241Z,58.69
2017-02-09T19:33:12.965Z,58.69
2017-02-09T19:34:12.545Z,58.67
2017-02-09T19:35:12.938Z,58.70
2017-02-09T19:36:12.286Z,58.69
2017-02-09T19:37:12.653Z,58.70
2017-02-09T19:38:12.613Z,58.70
2017-02-09T19:39:13.165Z,58.67
2017-02-09T19:40:12.706Z,58.69
2017-02-09T19:41:14.297Z,58.68
2017-02-09T19:42:13.100Z,58.67
2017-02-09T19:43:14.918Z,58.67
2017-02-09T19:44:13.506Z,58.64
2017-02-09T19:45:10.637Z,58.66
2017-02-09T19:46:12.479Z,58.65
2017-02-09T19:47:12.774Z,58.65
2017-02-09T19:48:14.429Z,58.64
2017-02-09T19:49:13.034Z,58.65
2017-02-09T19:50:13.601Z,58.65
2017-02-09T19:51:12.642Z,58.64
2017-02-09T19:52:13.464Z,58.61
2017-02-09T19:53:13.989Z,58.66
2017-02-09T19:54:13.693Z,58.65
2017-02-09T19:55:13.431Z,58.64
2017-02-09T19:56:11.307Z,58.67
2017-02-09T19:57:12.094Z,57.70
2017-02-09T19:58:12.708Z,57.55
2017-02-09T19:59:12.784Z,58.36
2017-02-09T20:00:14.330Z,58.52
2017-02-09T20:01:12.980Z,58.57
2017-02-09T20:02:13.486Z,58.63
2017-02-09T20:03:13.145Z,58.60
2017-02-09T20:04:12.114Z,58.64
2017-02-09T20:05:12.015Z,58.68
2017-02-09T20:06:11.839Z,58.68
2017-02-09T20:07:13.379Z,58.66
2017-02-09T20:08:13.126Z,58.65
2017-02-09T20:09:12.273Z,58.67
2017-02-09T20:10:13.009Z,58.68
2017-02-09T20:11:13.125Z,58.63
2017-02-09T20:12:12.362Z,58.66
2017-02-09T20:13:13.441Z,58.65
2017-02-09T20:14:12.427Z,58.65
2017-02-09T20:15:13.337Z,58.64
2017-02-09T20:16:12.806Z,58.67
2017-02-09T20:17:12.818Z,58.70
2017-02-09T20:18:13.386Z,58.68
2017-02-09T20:19:12.947Z,58.62
2017-02-09T20:20:12.224Z,58.65
2017-02-09T20:21:14.831Z,58.62
2017-02-09T20:22:14.236Z,58.62
2017-02-09T20:23:13.654Z,58.60
2017-02-09T20:24:14.237Z,58.61
2017-02-09T20:25:12.616Z,58.61
2017-02-09T20:26:12.705Z,58.59
2017-02-09T20:27:13.606Z,58.59
2017-02-09T20:28:12.617Z,58.60
2017-02-09T20:29:13.231Z,58.61
2017-02-09T20:30:13.422Z,58.61
2017-02-09T20:31:12.883Z,58.61
2017-02-09T20:32:13.689Z,58.60
2017-02-09T20:33:13.336Z,58.58
2017-02-09T20:34:13.938Z,57.67
2017-02-09T20:35:12.739Z,57.50
2017-02-09T20:36:13.434Z,57.40
2017-02-09T20:37:12.388Z,57.39
2017-02-09T20:38:12.264Z,57.34
2017-02-09T20:39:12.210Z,57.34
2017-02-09T20:40:12.841Z,57.37
2017-02-09T20:41:13.527Z,57.44
2017-02-09T20:42:18.589Z,58.39
2017-02-09T20:43:12.578Z,58.63
2017-02-09T20:44:14.094Z,58.68
2017-02-09T20:45:13.737Z,58.67
2017-02-09T20:46:12.778Z,58.65
2017-02-09T20:47:13.635Z,58.69
2017-02-09T20:48:12.443Z,58.67
2017-02-09T20:49:12.434Z,58.67
2017-02-09T20:50:12.273Z,58.67
2017-02-09T20:51:12.369Z,58.68
2017-02-09T20:52:13.000Z,58.69
2017-02-09T20:53:12.009Z,58.68
2017-02-09T20:54:12.443Z,58.71
2017-02-09T20:55:18.613Z,58.69
2017-02-09T20:56:13.111Z,58.70
2017-02-09T20:57:12.076Z,58.69
2017-02-09T20:58:12.736Z,58.70
2017-02-09T20:59:12.626Z,58.71
2017-02-09T21:00:12.955Z,58.72
2017-02-09T21:01:10.123Z,58.74
2017-02-09T21:02:12.615Z,58.67
2017-02-09T21:03:13.336Z,57.77
2017-02-09T21:04:12.351Z,57.59
2017-02-09T21:05:12.332Z,57.42
2017-02-09T21:06:12.811Z,57.42
2017-02-09T21:07:12.795Z,57.38
2017-02-09T21:08:13.420Z,57.35
2017-02-09T21:09:14.022Z,58.26
2017-02-09T21:10:12.725Z,58.55
2017-02-09T21:11:13.075Z,58.47
2017-02-09T21:12:10.142Z,58.58
2017-02-09T21:13:12.616Z,58.59
2017-02-09T21:14:12.660Z,58.65
2017-02-09T21:15:12.829Z,58.65
2017-02-09T21:16:13.388Z,58.63
2017-02-09T21:17:13.052Z,58.63
2017-02-09T21:18:12.073Z,58.75
2017-02-09T21:19:12.502Z,58.59
2017-02-09T21:20:10.488Z,58.75